Time;durP1;ratioP1;P1;durP2;ratioP2;P2;SDS_P1;SDS_P2;PMS_P1;PMS_P2;Temp;Humidity;BMP_temperature;BMP_pressure;BME280_temperature;BME280_humidity;BME280_pressure;Samples;Min_cycle;Max_cycle;Signal;HPM_P1;HPM_P2
2024/04/06 00:02:19;;;;;;;;;12.33;12.33;;;;;13.72;95.66;99743.03;6277798;20;3529624;-38
2024/04/06 00:04:46;;;;;;;;;12.00;11.00;;;;;13.31;99.81;99737.97;6313812;20;2795100;-39
2024/04/06 00:07:13;;;;;;;;;12.00;12.00;;;;;13.38;99.77;99731.16;6276717;20;2799329;-40
2024/04/06 00:09:40;;;;;;;;;10.00;9.00;;;;;13.29;100.00;99729.09;6311444;20;2774300;-39
2024/04/06 00:12:06;;;;;;;;;14.00;9.00;;;;;13.02;100.00;99721.13;6278294;20;2772205;-39
2024/04/06 00:14:34;;;;;;;;;11.33;11.00;;;;;12.99;100.00;99706.06;6275904;20;3521231;-40
2024/04/06 00:17:00;;;;;;;;;16.50;12.50;;;;;13.13;100.00;99702.34;6309825;20;2812902;-39
2024/04/06 00:19:28;;;;;;;;;11.00;11.00;;;;;12.99;100.00;99700.66;6274625;20;3523217;-39
2024/04/06 00:21:55;;;;;;;;;11.00;11.00;;;;;13.03;100.00;99699.44;6308301;20;2792043;-38
2024/04/06 00:24:22;;;;;;;;;13.00;11.00;;;;;13.55;100.00;99709.19;6311092;20;2727340;-39
2024/04/06 00:26:50;;;;;;;;;11.33;11.33;;;;;13.36;100.00;99706.97;6272547;20;2797287;-39
2024/04/06 00:29:18;;;;;;;;;14.00;12.00;;;;;13.39;100.00;99705.91;6304926;20;3526356;-39
2024/04/06 00:31:44;;;;;;;;;12.00;10.50;;;;;13.45;100.00;99716.22;6310800;20;2784784;-39
2024/04/06 00:34:12;;;;;;;;;13.00;13.00;;;;;13.57;100.00;99734.22;6277328;20;3527363;-39
2024/04/06 00:36:38;;;;;;;;;12.00;11.50;;;;;13.50;100.00;99742.88;6309665;20;2797224;-39
2024/04/06 00:39:06;;;;;;;;;12.00;12.00;;;;;13.44;100.00;99754.97;6275244;20;2785804;-39
2024/04/06 00:41:33;;;;;;;;;0.00;0.00;;;;;13.41;100.00;99763.28;6313004;20;2694239;-39
2024/04/06 00:43:59;;;;;;;;;11.00;11.00;;;;;13.45;100.00;99761.22;6281026;20;2788826;-39
2024/04/06 00:46:26;;;;;;;;;7.00;7.00;;;;;13.72;98.85;99771.88;6278127;20;2748201;-39
2024/04/06 00:48:56;;;;;;;;;8.14;8.14;;;;;13.77;99.32;99767.84;6320734;20;3463830;-39
2024/04/06 00:51:22;;;;;;;;;11.00;10.00;;;;;13.38;100.00;99767.06;6309230;20;2781580;-39
2024/04/06 00:53:49;;;;;;;;;10.00;9.00;;;;;12.80;100.00;99760.38;6279250;20;2769104;-40
2024/04/06 00:56:17;;;;;;;;;9.20;9.20;;;;;13.24;100.00;99750.13;6299748;20;2752956;-39
2024/04/06 00:58:46;;;;;;;;;10.80;9.60;;;;;12.67;100.00;99740.66;6301101;20;2780502;-39
2024/04/06 01:01:12;;;;;;;;;10.00;10.00;;;;;12.51;100.00;99740.84;6279433;20;2772121;-39
2024/04/06 01:03:39;;;;;;;;;10.00;9.00;;;;;12.88;100.00;99751.78;6273260;20;2762970;-39
2024/04/06 01:06:06;;;;;;;;;10.33;10.33;;;;;13.25;100.00;99758.09;6275300;20;2779450;-39
2024/04/06 01:08:33;;;;;;;;;10.50;10.50;;;;;13.04;100.00;99757.81;6309199;20;2789893;-39
2024/04/06 01:11:00;;;;;;;;;9.50;9.00;;;;;12.50;100.00;99744.50;6278850;20;2751342;-39
2024/04/06 01:13:27;;;;;;;;;10.00;10.00;;;;;12.11;100.00;99730.06;6275603;20;2791958;-39
2024/04/06 01:15:56;;;;;;;;;10.80;10.80;;;;;11.97;100.00;99727.47;6331157;20;2781655;-38
2024/04/06 01:18:24;;;;;;;;;10.60;9.60;;;;;12.03;100.00;99713.59;6299352;20;2776386;-39
2024/04/06 01:20:53;;;;;;;;;8.50;8.50;;;;;12.01;100.00;99705.63;6275971;20;2746209;-39
2024/04/06 01:23:21;;;;;;;;;11.50;10.50;;;;;12.48;100.00;99708.72;6274848;20;2794216;-39
2024/04/06 01:25:49;;;;;;;;;10.80;8.60;;;;;12.23;100.00;99696.09;6333790;20;2771204;-38
2024/04/06 01:28:16;;;;;;;;;9.00;9.00;;;;;12.67;100.00;99705.63;6283807;20;2760689;-39
2024/04/06 01:30:42;;;;;;;;;8.50;8.50;;;;;12.60;100.00;99704.34;6276465;20;2750350;-39
2024/04/06 01:33:11;;;;;;;;;11.40;10.80;;;;;12.75;100.00;99703.25;6301377;20;2790919;-38
2024/04/06 01:35:38;;;;;;;;;12.33;11.00;;;;;12.55;100.00;99710.03;6272688;20;2788849;-39
2024/04/06 01:38:05;;;;;;;;;10.00;10.00;;;;;12.54;100.00;99699.38;6304023;20;2790908;-39
2024/04/06 01:40:32;;;;;;;;;13.00;12.00;;;;;12.47;100.00;99707.88;6308201;20;2800274;-40
2024/04/06 01:42:59;;;;;;;;;12.00;12.00;;;;;12.63;100.00;99715.75;6275147;20;2786860;-39
2024/04/06 01:45:27;;;;;;;;;16.67;14.00;;;;;12.57;100.00;99715.31;6304509;20;3527354;-38
2024/04/06 01:47:54;;;;;;;;;13.33;13.33;;;;;11.82;100.00;99707.78;6272158;20;3525467;-39
2024/04/06 01:50:22;;;;;;;;;17.00;14.00;;;;;11.73;100.00;99703.88;6305256;20;3545083;-39
2024/04/06 01:52:49;;;;;;;;;17.67;16.67;;;;;11.96;100.00;99710.47;6272588;20;2827496;-39
2024/04/06 01:55:16;;;;;;;;;13.00;12.67;;;;;11.91;100.00;99706.34;6304354;20;3534748;-38
2024/04/06 01:57:43;;;;;;;;;15.50;14.00;;;;;12.05;100.00;99707.13;6274990;20;2802479;-39
2024/04/06 02:00:11;;;;;;;;;16.67;16.67;;;;;12.19;100.00;99717.00;6271542;20;3554435;-39
2024/04/06 02:02:38;;;;;;;;;14.00;11.00;;;;;12.27;100.00;99719.16;6277008;20;2801330;-39
2024/04/06 02:05:04;;;;;;;;;16.00;16.00;;;;;12.04;100.00;99718.88;6275378;20;2821113;-39
2024/04/06 02:07:32;;;;;;;;;16.33;13.67;;;;;12.06;100.00;99724.16;6271841;20;2795146;-39
2024/04/06 02:09:59;;;;;;;;;15.33;13.67;;;;;11.95;100.00;99716.78;6306217;20;3533669;-38
2024/04/06 02:12:27;;;;;;;;;13.33;13.33;;;;;11.93;100.00;99705.28;6274175;20;3526713;-38
2024/04/06 02:14:53;;;;;;;;;14.00;13.00;;;;;12.00;100.00;99706.56;6309968;20;2788824;-39
2024/04/06 02:17:20;;;;;;;;;11.00;11.00;;;;;12.27;100.00;99705.69;6277080;20;2791223;-39
2024/04/06 02:19:49;;;;;;;;;12.40;11.60;;;;;12.69;100.00;99719.84;6300972;20;2789932;-39
2024/04/06 02:22:17;;;;;;;;;12.40;12.40;;;;;12.45;100.00;99707.13;6299260;20;2789890;-39
2024/04/06 02:24:45;;;;;;;;;14.00;12.00;;;;;12.37;100.00;99708.59;6274179;20;2751442;-40
2024/04/06 02:27:12;;;;;;;;;18.00;15.00;;;;;12.27;100.00;99713.78;6272717;20;3550258;-39
2024/04/06 02:29:40;;;;;;;;;17.67;14.00;;;;;12.33;100.00;99710.66;6269467;20;2785997;-39
2024/04/06 02:32:08;;;;;;;;;11.60;11.40;;;;;12.11;100.00;99713.06;6329053;20;2792084;-38
2024/04/06 02:34:34;;;;;;;;;14.50;11.50;;;;;11.89;100.00;99709.13;6277238;20;2792422;-39
2024/04/06 02:37:01;;;;;;;;;15.00;14.00;;;;;11.78;100.00;99711.66;6275914;20;2807743;-39
2024/04/06 02:39:28;;;;;;;;;9.67;9.00;;;;;11.37;100.00;99705.34;6273074;20;2773233;-40
2024/04/06 02:41:56;;;;;;;;;12.67;12.67;;;;;11.73;100.00;99701.19;6303317;20;3525249;-39
2024/04/06 02:44:23;;;;;;;;;12.00;12.00;;;;;11.80;100.00;99704.34;6304185;20;3529424;-39
2024/04/06 02:46:51;;;;;;;;;17.67;14.67;;;;;11.42;100.00;99694.25;6303347;20;3548184;-39
2024/04/06 02:49:18;;;;;;;;;13.00;12.67;;;;;12.15;100.00;99679.63;6272882;20;2792680;-39
2024/04/06 02:51:45;;;;;;;;;14.00;11.00;;;;;12.05;100.00;99687.44;6304515;20;2787787;-39
2024/04/06 02:54:12;;;;;;;;;13.33;13.33;;;;;12.00;100.00;99685.06;6273822;20;3522140;-39
2024/04/06 02:56:39;;;;;;;;;16.50;13.00;;;;;11.96;100.00;99683.56;6308030;20;2796148;-39
2024/04/06 02:59:07;;;;;;;;;15.33;13.67;;;;;11.68;100.00;99689.00;6273287;20;3533672;-40
2024/04/06 03:01:33;;;;;;;;;16.50;16.50;;;;;11.91;100.00;99683.00;6305013;20;2819049;-41
2024/04/06 03:04:01;;;;;;;;;15.67;14.67;;;;;11.78;100.00;99679.38;6274269;20;3523229;-41
2024/04/06 03:06:28;;;;;;;;;14.00;10.33;;;;;12.21;100.00;99680.03;6270497;20;2788961;-41
2024/04/06 03:08:54;;;;;;;;;16.00;14.50;;;;;12.50;100.00;99679.88;6306456;20;2805482;-42
2024/04/06 03:11:21;;;;;;;;;12.00;12.00;;;;;12.44;100.00;99683.84;6276497;20;2797252;-42
2024/04/06 03:13:48;;;;;;;;;16.00;15.00;;;;;12.36;100.00;99680.81;6277592;20;2802410;-42
2024/04/06 03:16:14;;;;;;;;;13.00;13.00;;;;;11.78;100.00;99676.69;6276354;20;2796122;-43
2024/04/06 03:18:41;;;;;;;;;14.00;14.00;;;;;11.48;100.00;99669.69;6269260;20;2496255;-41
2024/04/06 03:21:08;;;;;;;;;15.50;14.50;;;;;12.12;100.00;99663.69;6277407;20;2811762;-41
2024/04/06 03:23:35;;;;;;;;;12.00;11.00;;;;;12.88;100.00;99660.16;6271916;20;2789890;-42
2024/04/06 03:26:02;;;;;;;;;10.50;9.50;;;;;13.16;100.00;99659.88;6303696;20;2779544;-42
2024/04/06 03:28:29;;;;;;;;;10.00;9.00;;;;;13.36;100.00;99661.13;6283020;20;2770106;-41
2024/04/06 03:30:57;;;;;;;;;9.00;8.00;;;;;13.49;100.00;99673.72;6286598;20;2754448;-42
2024/04/06 03:33:26;;;;;;;;;11.40;8.60;;;;;13.52;100.00;99676.19;6310601;20;2761765;-42
2024/04/06 03:35:54;;;;;;;;;8.40;8.40;;;;;13.59;100.00;99682.88;6306424;20;2740914;-41
2024/04/06 03:38:21;;;;;;;;;8.00;7.00;;;;;13.63;100.00;99684.34;6315174;20;2738293;-45
2024/04/06 03:40:49;;;;;;;;;7.60;7.60;;;;;13.64;100.00;99704.09;6309514;20;2752420;-46
2024/04/06 03:43:16;;;;;;;;;8.00;8.00;;;;;13.56;100.00;99704.66;6316872;20;2754528;-41
2024/04/06 03:45:46;;;;;;;;;16.33;15.00;;;;;12.77;100.00;99705.84;6284646;20;3539842;-42
2024/04/06 03:48:14;;;;;;;;;18.67;16.00;;;;;12.19;100.00;99692.75;6278793;20;3548165;-41
2024/04/06 03:50:41;;;;;;;;;17.33;16.67;;;;;11.83;100.00;99693.38;6280880;20;3561768;-43
2024/04/06 03:53:10;;;;;;;;;15.33;14.00;;;;;12.17;100.00;99702.78;6284588;20;3532695;-42
2024/04/06 03:55:37;;;;;;;;;17.33;15.33;;;;;12.05;100.00;99701.75;6312705;20;3548174;-43
2024/04/06 03:58:05;;;;;;;;;17.00;14.67;;;;;12.37;100.00;99708.59;6313526;20;3540898;-42
2024/04/06 04:00:32;;;;;;;;;13.67;12.00;;;;;12.36;100.00;99707.75;6281838;20;3537736;-43
2024/04/06 04:02:59;;;;;;;;;16.50;14.00;;;;;12.62;100.00;99711.34;6312400;20;2491970;-42
2024/04/06 04:05:26;;;;;;;;;13.00;13.00;;;;;12.87;100.00;99717.69;6282503;20;3531505;-42
2024/04/06 04:07:54;;;;;;;;;15.67;14.67;;;;;12.76;100.00;99720.28;6312286;20;3534717;-44
2024/04/06 04:10:20;;;;;;;;;13.00;13.00;;;;;12.44;100.00;99723.38;6280850;20;2500695;-42
2024/04/06 04:12:48;;;;;;;;;15.33;14.33;;;;;11.90;100.00;99727.03;6283330;20;3542022;-42
2024/04/06 04:15:15;;;;;;;;;16.00;14.00;;;;;12.39;100.00;99729.06;6280399;20;3541238;-45
2024/04/06 04:17:42;;;;;;;;;17.00;17.00;;;;;12.17;100.00;99723.44;6279235;20;2827864;-42
2024/04/06 04:20:09;;;;;;;;;17.50;15.50;;;;;12.00;100.00;99729.94;6286154;20;2813872;-42
2024/04/06 04:22:36;;;;;;;;;14.67;14.67;;;;;11.79;100.00;99721.44;6282869;20;3541890;-43
2024/04/06 04:25:04;;;;;;;;;19.00;17.00;;;;;11.95;100.00;99714.09;6280796;20;3565948;-42
2024/04/06 04:27:32;;;;;;;;;15.50;15.50;;;;;12.02;100.00;99719.94;6283686;20;2811748;-42
2024/04/06 04:29:59;;;;;;;;;2.50;2.50;;;;;12.26;100.00;99714.72;6302017;20;1812871;-42
2024/04/06 04:32:27;;;;;;;;;12.00;12.00;;;;;12.31;100.00;99715.28;6312947;20;3530846;-44
2024/04/06 04:34:53;;;;;;;;;13.00;13.00;;;;;12.35;100.00;99716.81;6315356;20;2800675;-44
2024/04/06 04:37:20;;;;;;;;;20.50;16.00;;;;;12.43;100.00;99722.53;6284326;20;2820336;-42
2024/04/06 04:39:47;;;;;;;;;15.50;15.50;;;;;12.50;100.00;99728.34;6278841;20;2804546;-43
2024/04/06 04:42:13;;;;;;;;;14.00;14.00;;;;;12.44;100.00;99718.84;6278478;20;2804456;-43
2024/04/06 04:44:41;;;;;;;;;11.00;11.00;;;;;12.42;100.00;99719.94;6274671;20;3519188;-42
2024/04/06 04:47:08;;;;;;;;;16.67;13.00;;;;;12.16;100.00;99716.31;6303941;20;3550444;-47
2024/04/06 04:49:36;;;;;;;;;17.33;16.00;;;;;12.37;100.00;99720.22;6271820;20;3555455;-44
2024/04/06 04:52:04;;;;;;;;;15.33;14.67;;;;;12.52;100.00;99729.97;6274559;20;3541942;-48
2024/04/06 04:54:31;;;;;;;;;13.00;11.00;;;;;12.51;100.00;99739.00;6273910;20;2794131;-45
2024/04/06 04:56:58;;;;;;;;;12.00;12.00;;;;;12.69;100.00;99739.59;6305832;20;3528528;-45
2024/04/06 04:59:26;;;;;;;;;15.33;14.33;;;;;12.68;100.00;99743.22;6304271;20;3540033;-45
2024/04/06 05:01:52;;;;;;;;;20.00;16.50;;;;;12.77;100.00;99749.81;6275009;20;2491946;-42
2024/04/06 05:04:20;;;;;;;;;17.00;15.67;;;;;12.62;100.00;99754.44;6275841;20;2827483;-42
2024/04/06 05:06:47;;;;;;;;;14.00;14.00;;;;;12.91;100.00;99763.19;6306500;20;3534643;-42
2024/04/06 05:09:15;;;;;;;;;15.67;13.00;;;;;12.99;100.00;99768.03;6304847;20;3529439;-43
2024/04/06 05:11:43;;;;;;;;;17.00;14.00;;;;;13.04;100.00;99765.03;6273787;20;2500252;-42
2024/04/06 05:14:09;;;;;;;;;13.00;13.00;;;;;13.17;100.00;99763.19;6277390;20;2794104;-44
2024/04/06 05:16:37;;;;;;;;;13.33;13.00;;;;;13.11;100.00;99760.91;6272344;20;3525480;-42
2024/04/06 05:19:05;;;;;;;;;14.00;14.00;;;;;13.36;100.00;99768.16;6305678;20;2794026;-43
2024/04/06 05:21:32;;;;;;;;;11.00;10.50;;;;;13.29;100.00;99762.31;6273937;20;2786832;-42
2024/04/06 05:23:59;;;;;;;;;11.00;11.00;;;;;13.34;100.00;99762.00;6278310;20;2790045;-42
2024/04/06 05:26:25;;;;;;;;;12.50;10.00;;;;;13.45;100.00;99753.13;6275655;20;2784717;-42
2024/04/06 05:28:53;;;;;;;;;11.33;11.33;;;;;13.53;100.00;99762.41;6272003;20;3520270;-44
2024/04/06 05:31:19;;;;;;;;;11.50;11.00;;;;;13.73;100.00;99776.28;6308868;20;2790415;-42
2024/04/06 05:33:46;;;;;;;;;12.00;12.00;;;;;13.71;100.00;99779.06;6279328;20;2792431;-44
2024/04/06 05:36:14;;;;;;;;;9.00;8.00;;;;;13.69;100.00;99770.25;6275613;20;2764845;-43
2024/04/06 05:38:41;;;;;;;;;12.00;12.00;;;;;13.89;100.00;99782.25;6271669;20;3533599;-49
2024/04/06 05:41:09;;;;;;;;;14.67;12.00;;;;;13.95;100.00;99791.75;6305768;20;3522140;-44
2024/04/06 05:43:35;;;;;;;;;10.00;10.00;;;;;14.00;100.00;99789.56;6308611;20;2788826;-45
2024/04/06 05:46:05;;;;;;;;;12.50;9.50;;;;;14.19;100.00;99784.53;6274892;20;2779428;-43
2024/04/06 05:48:33;;;;;;;;;13.00;13.00;;;;;14.25;100.00;99794.00;6270856;20;3530494;-46
2024/04/06 05:51:01;;;;;;;;;14.00;13.00;;;;;14.44;100.00;99791.63;6303900;20;3515907;-50
2024/04/06 05:53:27;;;;;;;;;15.50;13.50;;;;;14.65;100.00;99793.72;6305744;20;2797114;-44
2024/04/06 05:55:54;;;;;;;;;16.50;13.00;;;;;14.82;97.64;99785.13;6276320;20;2810844;-41
2024/04/06 05:58:21;;;;;;;;;13.00;13.00;;;;;14.91;96.85;99797.09;6273408;20;3527500;-44
2024/04/06 06:00:49;;;;;;;;;10.00;10.00;;;;;14.79;97.06;99798.03;6272592;20;2797149;-45
2024/04/06 06:03:17;;;;;;;;;17.00;16.00;;;;;14.75;96.23;99796.56;6303996;20;3558667;-43
2024/04/06 06:05:44;;;;;;;;;16.00;15.67;;;;;15.02;96.33;99809.78;6273123;20;3562792;-44
2024/04/06 06:08:12;;;;;;;;;16.33;16.33;;;;;15.06;95.39;99816.66;6271119;20;3558714;-48
2024/04/06 06:10:39;;;;;;;;;19.00;16.00;;;;;14.87;95.49;99812.69;6275222;20;2829484;-48
2024/04/06 06:13:06;;;;;;;;;16.00;16.00;;;;;14.77;95.87;99818.91;6271876;20;2483594;-46
2024/04/06 06:15:33;;;;;;;;;16.00;16.00;;;;;15.00;95.49;99818.00;6271935;20;2828452;-44
2024/04/06 06:18:01;;;;;;;;;12.00;12.00;;;;;14.97;94.90;99822.78;6272133;20;3526338;-44
2024/04/06 06:20:29;;;;;;;;;17.67;16.67;;;;;14.85;97.69;99822.78;6271969;20;3562801;-43
2024/04/06 06:22:56;;;;;;;;;12.33;12.33;;;;;14.67;98.64;99816.94;6272850;20;3538822;-45
2024/04/06 06:25:24;;;;;;;;;14.67;14.67;;;;;14.87;96.38;99812.69;6271825;20;3535808;-45
2024/04/06 06:27:51;;;;;;;;;14.33;12.33;;;;;14.98;95.47;99813.69;6302377;20;3513964;-46
2024/04/06 06:30:19;;;;;;;;;16.00;14.00;;;;;15.05;97.34;99813.09;6305795;20;3538832;-44
2024/04/06 06:32:45;;;;;;;;;13.00;13.00;;;;;14.90;97.62;99807.06;6306064;20;2492056;-42
2024/04/06 06:35:13;;;;;;;;;16.67;15.00;;;;;14.98;96.39;99811.88;6272695;20;3548180;-45
2024/04/06 06:37:40;;;;;;;;;14.67;13.67;;;;;15.27;93.99;99816.81;6272735;20;3527429;-43
2024/04/06 06:40:07;;;;;;;;;16.00;14.00;;;;;15.43;93.13;99811.03;6271909;20;2496117;-43
2024/04/06 06:42:34;;;;;;;;;14.67;14.00;;;;;15.70;94.18;99799.91;6275432;20;2803460;-45
2024/04/06 06:45:05;;;;;;;;;23.50;17.00;;;;;15.67;90.99;99794.72;6302087;20;2487879;-44
2024/04/06 06:47:35;;;;;;;;;18.00;17.00;;;;;15.61;91.53;99790.63;6275282;20;2839867;-43
2024/04/06 06:50:03;;;;;;;;;18.50;15.50;;;;;16.04;89.66;99802.56;6276717;20;2816002;-43
2024/04/06 06:52:31;;;;;;;;;17.00;17.00;;;;;16.33;87.37;99808.25;6275437;20;2835755;-45
2024/04/06 06:54:58;;;;;;;;;17.00;15.00;;;;;16.51;86.18;99817.56;6273796;20;2823335;-43
2024/04/06 06:57:25;;;;;;;;;16.00;16.00;;;;;16.76;83.82;99819.03;6274595;20;2826313;-42
2024/04/06 06:59:53;;;;;;;;;19.00;18.00;;;;;17.25;82.34;99830.28;6273587;20;2841017;-42
2024/04/06 07:02:20;;;;;;;;;17.00;17.00;;;;;17.20;82.24;99822.53;6273481;20;2833651;-43
2024/04/06 07:04:48;;;;;;;;;25.00;20.50;;;;;17.26;80.40;99830.13;6273019;20;2838883;-42
2024/04/06 07:07:15;;;;;;;;;23.00;20.00;;;;;17.70;76.79;99832.66;6275494;20;2829520;-42
2024/04/06 07:09:43;;;;;;;;;17.50;16.00;;;;;17.66;78.32;99831.19;6271723;20;2837808;-41
2024/04/06 07:12:10;;;;;;;;;18.00;17.00;;;;;17.98;76.18;99840.06;6275072;20;2819078;-42
2024/04/06 07:14:38;;;;;;;;;18.50;17.00;;;;;17.89;77.43;99835.47;6273719;20;2830619;-40
2024/04/06 07:17:05;;;;;;;;;19.00;18.50;;;;;17.70;76.73;99843.50;6274815;20;2835741;-40
2024/04/06 07:19:33;;;;;;;;;16.00;16.00;;;;;17.79;77.01;99842.69;6271690;20;2815940;-40
2024/04/06 07:22:00;;;;;;;;;15.00;13.50;;;;;17.75;76.94;99849.41;6262623;20;2799291;-41
2024/04/06 07:24:27;;;;;;;;;16.00;15.00;;;;;17.87;77.60;99844.75;6266513;20;2492497;-42
2024/04/06 07:26:54;;;;;;;;;17.67;17.00;;;;;17.99;78.32;99849.09;6272298;20;2498735;-40
2024/04/06 07:29:21;;;;;;;;;18.00;18.00;;;;;18.10;76.42;99853.53;6305566;20;3575326;-40
2024/04/06 07:31:49;;;;;;;;;18.00;16.00;;;;;18.25;78.41;99848.59;6269628;20;2829610;-40
2024/04/06 07:34:18;;;;;;;;;18.67;18.33;;;;;18.03;78.14;99845.06;6276042;20;3573181;-40
2024/04/06 07:36:45;;;;;;;;;20.00;20.00;;;;;17.72;78.70;99852.34;6273075;20;3560894;-40
2024/04/06 07:39:12;;;;;;;;;16.67;15.00;;;;;17.58;80.26;99859.00;6271088;20;3552393;-40
2024/04/06 07:41:40;;;;;;;;;18.67;18.00;;;;;17.62;80.77;99862.34;6305611;20;3568029;-41
2024/04/06 07:44:06;;;;;;;;;15.00;15.00;;;;;17.71;80.90;99854.22;6271250;20;2483698;-40
2024/04/06 07:46:34;;;;;;;;;18.00;18.00;;;;;17.45;81.99;99852.94;6271602;20;2837798;-40
2024/04/06 07:49:01;;;;;;;;;18.33;18.33;;;;;17.56;81.46;99858.28;6275284;20;3561767;-40
2024/04/06 07:51:29;;;;;;;;;18.00;18.00;;;;;17.52;81.98;99854.13;6271454;20;3562819;-40
2024/04/06 07:53:56;;;;;;;;;15.00;15.00;;;;;17.47;81.43;99856.38;6300977;20;2816989;-40
2024/04/06 07:56:23;;;;;;;;;18.00;16.00;;;;;18.04;79.72;99862.25;6271814;20;2485699;-40
2024/04/06 07:58:50;;;;;;;;;18.00;15.50;;;;;17.94;77.97;99863.06;6270330;20;2820131;-40
2024/04/06 08:01:17;;;;;;;;;14.00;14.00;;;;;17.90;77.56;99864.31;6273173;20;2491963;-41
2024/04/06 08:03:44;;;;;;;;;13.67;12.00;;;;;18.02;77.22;99873.25;6272678;20;3539852;-40
2024/04/06 08:06:12;;;;;;;;;14.33;12.00;;;;;18.16;75.80;99872.84;6273607;20;3537838;-40
2024/04/06 08:08:39;;;;;;;;;17.00;16.50;;;;;18.31;75.80;99865.19;6298918;20;2491990;-41
2024/04/06 08:11:06;;;;;;;;;7.00;7.00;;;;;18.65;73.73;99873.81;6278234;20;2745109;-40
2024/04/06 08:13:32;;;;;;;;;13.50;13.50;;;;;18.37;74.87;99864.63;6277671;20;2483814;-41
2024/04/06 08:16:00;;;;;;;;;12.00;12.00;;;;;18.82;75.26;99874.13;6279357;20;3529487;-41
2024/04/06 08:18:26;;;;;;;;;14.00;12.00;;;;;19.01;71.99;99874.16;6278655;20;2802371;-41
2024/04/06 08:20:53;;;;;;;;;12.00;12.00;;;;;18.83;72.00;99865.00;6280814;20;2806938;-41
2024/04/06 08:23:20;;;;;;;;;11.33;11.33;;;;;19.28;70.72;99880.72;6278792;20;3519050;-42
2024/04/06 08:25:54;;;;;;;;;12.33;10.33;;;;;19.28;70.32;99867.97;6276711;20;3517311;-43
2024/04/06 08:28:22;;;;;;;;;13.33;13.33;;;;;19.31;71.22;99858.66;6309724;20;3525315;-43
2024/04/06 08:30:49;;;;;;;;;11.67;11.67;;;;;19.26;71.10;99860.94;6309740;20;3516101;-42
2024/04/06 08:33:16;;;;;;;;;14.33;14.33;;;;;19.59;69.49;99858.69;6274832;20;3517994;-40
2024/04/06 08:35:44;;;;;;;;;14.67;14.67;;;;;19.81;68.74;99855.66;6275788;20;2812826;-42
2024/04/06 08:38:12;;;;;;;;;13.67;12.00;;;;;19.58;69.83;99854.28;6306740;20;3521142;-42
2024/04/06 08:40:42;;;;;;;;;13.00;12.67;;;;;19.69;68.99;99852.25;6276135;20;3521680;-43
2024/04/06 08:43:12;;;;;;;;;12.00;12.00;;;;;19.63;68.95;99852.81;6307489;20;3532624;-43
2024/04/06 08:45:44;;;;;;;;;11.00;11.00;;;;;19.57;71.75;99852.56;6313466;20;2789921;-43
2024/04/06 08:48:13;;;;;;;;;13.00;10.00;;;;;19.45;69.98;99850.00;6274916;20;3505517;-42
2024/04/06 08:50:42;;;;;;;;;13.50;12.00;;;;;19.28;71.56;99853.50;6307662;20;2492099;-44
2024/04/06 08:53:10;;;;;;;;;13.50;13.50;;;;;19.58;69.71;99844.22;6281879;20;2807217;-45
2024/04/06 08:55:37;;;;;;;;;14.67;14.00;;;;;20.13;67.10;99851.63;6278198;20;3541921;-42
2024/04/06 08:58:05;;;;;;;;;15.00;14.67;;;;;21.23;64.85;99859.59;6276394;20;3532730;-43
2024/04/06 09:00:33;;;;;;;;;12.00;12.00;;;;;21.07;63.34;99859.47;6277472;20;2803448;-44
2024/04/06 09:03:01;;;;;;;;;14.67;12.67;;;;;20.88;64.11;99862.34;6277434;20;2489907;-43
2024/04/06 09:05:29;;;;;;;;;14.33;10.67;;;;;21.50;63.25;99860.47;6309368;20;2790010;-42
2024/04/06 09:07:57;;;;;;;;;12.33;12.00;;;;;21.27;62.03;99861.00;6307972;20;3512813;-49
2024/04/06 09:10:27;;;;;;;;;11.67;11.67;;;;;21.02;62.87;99861.81;6304353;20;3522310;-45
2024/04/06 09:12:54;;;;;;;;;12.33;12.33;;;;;21.43;61.13;99860.28;6305165;20;3527448;-45
2024/04/06 09:15:22;;;;;;;;;12.67;12.67;;;;;21.19;61.91;99873.69;6313352;20;2793188;-46
2024/04/06 09:17:49;;;;;;;;;17.33;14.67;;;;;21.37;60.22;99876.41;6305288;20;3550309;-45
2024/04/06 09:20:17;;;;;;;;;13.67;12.67;;;;;21.72;59.38;99880.09;6277727;20;3526328;-44
2024/04/06 09:22:45;;;;;;;;;13.00;11.00;;;;;21.67;59.51;99873.25;6278048;20;2782695;-45
2024/04/06 09:25:13;;;;;;;;;12.33;12.00;;;;;21.18;60.64;99863.81;6304437;20;3515871;-46
2024/04/06 09:27:44;;;;;;;;;10.67;10.67;;;;;22.56;57.58;99869.22;6274272;20;3505583;-46
2024/04/06 09:30:12;;;;;;;;;10.67;10.00;;;;;22.94;55.34;99860.53;6305339;20;3509704;-47
2024/04/06 09:32:43;;;;;;;;;18.67;16.67;;;;;22.82;56.69;99867.38;6306223;20;2483676;-46
2024/04/06 09:35:11;;;;;;;;;15.33;12.33;;;;;22.54;56.12;99857.56;6309344;20;3512937;-47
2024/04/06 09:37:41;;;;;;;;;10.67;8.67;;;;;22.99;55.25;99858.19;6305754;20;3491011;-48
2024/04/06 09:40:09;;;;;;;;;10.00;9.00;;;;;22.66;56.71;99857.25;6307317;20;2775359;-46
2024/04/06 09:42:37;;;;;;;;;12.67;9.67;;;;;22.93;55.72;99856.97;6305290;20;2786742;-49
2024/04/06 09:45:07;;;;;;;;;9.00;9.00;;;;;23.52;54.48;99851.28;6317976;20;2752796;-47
2024/04/06 09:47:35;;;;;;;;;16.00;14.33;;;;;23.31;55.20;99856.47;6310328;20;3538878;-48
2024/04/06 09:50:05;;;;;;;;;10.00;7.40;;;;;23.39;53.27;99854.56;6333081;20;2764872;-47
2024/04/06 09:52:33;;;;;;;;;8.20;6.40;;;;;23.32;52.57;99848.06;6304339;20;2742113;-49
2024/04/06 09:55:00;;;;;;;;;7.67;5.00;;;;;22.68;52.78;99838.78;6277637;20;2740932;-46
2024/04/06 09:57:27;;;;;;;;;7.33;7.33;;;;;22.57;52.46;99840.81;6308081;20;2756555;-48
2024/04/06 10:00:07;;;;;;;;;4.00;4.00;;;;;22.81;50.71;99839.13;6308649;20;2749314;-46
2024/04/06 10:02:36;;;;;;;;;4.80;4.80;;;;;22.87;51.53;99843.94;6333380;20;2752457;-48
2024/04/06 10:05:05;;;;;;;;;6.20;5.00;;;;;23.40;50.29;99844.44;6300866;20;2744059;-45
2024/04/06 10:07:36;;;;;;;;;5.40;4.20;;;;;23.43;49.67;99844.09;6302918;20;2738841;-49
2024/04/06 10:10:07;;;;;;;;;4.00;3.20;;;;;23.17;49.62;99849.78;6299595;20;2737814;-47
2024/04/06 10:12:47;;;;;;;;;5.33;5.33;;;;;23.24;49.47;99845.31;6307504;20;2732615;-48
2024/04/06 10:15:20;;;;;;;;;5.00;5.00;;;;;23.34;49.64;99845.16;6333187;20;2731616;-48
2024/04/06 10:17:53;;;;;;;;;7.20;5.80;;;;;23.40;49.75;99844.44;6301552;20;2734779;-51
2024/04/06 10:20:27;;;;;;;;;4.00;4.00;;;;;23.16;50.72;99845.34;6331867;20;2748248;-46
2024/04/06 10:23:00;;;;;;;;;4.60;4.60;;;;;22.95;50.62;99845.81;6303046;20;2738839;-48
2024/04/06 10:25:36;;;;;;;;;4.40;4.40;;;;;23.41;50.58;99849.78;6330604;20;2742995;-50
2024/04/06 10:28:10;;;;;;;;;7.40;5.80;;;;;23.59;51.06;99851.44;6299727;20;2737813;-46
2024/04/06 10:30:39;;;;;;;;;6.67;6.67;;;;;23.75;50.07;99859.69;6281653;20;2734759;-45
2024/04/06 10:33:08;;;;;;;;;8.67;6.00;;;;;23.29;52.12;99853.88;6306226;20;2760693;-48
2024/04/06 10:35:35;;;;;;;;;7.00;7.00;;;;;23.53;51.50;99860.38;6304217;20;2752398;-45
2024/04/06 10:38:03;;;;;;;;;7.33;6.00;;;;;23.39;52.57;99853.72;6313537;20;2744129;-46
2024/04/06 10:40:37;;;;;;;;;7.00;7.00;;;;;23.27;53.30;99850.47;6314530;20;2750301;-46
2024/04/06 10:43:04;;;;;;;;;11.00;7.00;;;;;23.27;54.24;99855.09;6307074;20;2764867;-46
2024/04/06 10:45:32;;;;;;;;;8.00;8.00;;;;;23.66;53.58;99853.31;6307330;20;2751385;-46
2024/04/06 10:47:59;;;;;;;;;7.00;7.00;;;;;23.22;54.01;99848.25;6306425;20;2748237;-47
2024/04/06 10:50:28;;;;;;;;;7.20;7.20;;;;;23.68;53.47;99850.41;6330415;20;2745067;-46
2024/04/06 10:52:55;;;;;;;;;6.00;6.00;;;;;24.36;50.91;99845.38;6282264;20;2739863;-47
2024/04/06 10:55:25;;;;;;;;;7.67;7.67;;;;;23.81;51.71;99845.25;6307225;20;2743127;-45
2024/04/06 10:57:56;;;;;;;;;7.60;5.00;;;;;23.95;50.93;99840.91;6330749;20;2737879;-51
2024/04/06 11:00:26;;;;;;;;;6.60;5.60;;;;;24.05;50.59;99838.81;6301502;20;2739885;-49
2024/04/06 11:03:03;;;;;;;;;5.80;5.80;;;;;24.03;49.90;99853.75;6298458;20;2738835;-48
2024/04/06 11:05:31;;;;;;;;;8.33;6.00;;;;;23.85;51.53;99843.84;6274928;20;2744052;-48